sensor_id;sensor_type;location;lat;lon;timestamp;pressure;altitude;pressure_sealevel;temperature;humidity
5753;BME280;2901;42.140;24.760;2022-12-20T00:00:13;101765.81;;;2.02;88.63
5753;BME280;2901;42.140;24.760;2022-12-20T00:02:39;101768.75;;;2.08;89.09
5753;BME280;2901;42.140;24.760;2022-12-20T00:05:04;101763.94;;;2.13;88.55
5753;BME280;2901;42.140;24.760;2022-12-20T00:07:30;101761.38;;;2.13;88.26
5753;BME280;2901;42.140;24.760;2022-12-20T00:09:55;101766.88;;;2.19;87.92
5753;BME280;2901;42.140;24.760;2022-12-20T00:12:21;101762.97;;;2.24;87.78
5753;BME280;2901;42.140;24.760;2022-12-20T00:14:46;101763.34;;;2.30;87.97
5753;BME280;2901;42.140;24.760;2022-12-20T00:17:11;101763.72;;;2.36;87.70
5753;BME280;2901;42.140;24.760;2022-12-20T00:19:37;101769.91;;;2.39;87.58
5753;BME280;2901;42.140;24.760;2022-12-20T00:22:02;101767.25;;;2.38;87.95
5753;BME280;2901;42.140;24.760;2022-12-20T00:24:28;101763.91;;;2.39;87.90
5753;BME280;2901;42.140;24.760;2022-12-20T00:26:53;101755.09;;;2.34;88.00
5753;BME280;2901;42.140;24.760;2022-12-20T00:29:18;101768.06;;;2.37;87.52
5753;BME280;2901;42.140;24.760;2022-12-20T00:31:44;101765.59;;;2.25;88.39
5753;BME280;2901;42.140;24.760;2022-12-20T00:34:09;101766.69;;;2.16;88.74
5753;BME280;2901;42.140;24.760;2022-12-20T00:36:35;101760.19;;;2.07;88.92
5753;BME280;2901;42.140;24.760;2022-12-20T00:39:00;101769.38;;;2.04;89.42
5753;BME280;2901;42.140;24.760;2022-12-20T00:41:29;101770.22;;;1.91;89.71
5753;BME280;2901;42.140;24.760;2022-12-20T00:43:54;101772.97;;;1.81;91.13
5753;BME280;2901;42.140;24.760;2022-12-20T00:46:20;101764.69;;;1.59;92.37
5753;BME280;2901;42.140;24.760;2022-12-20T00:48:48;101764.69;;;1.46;93.79
5753;BME280;2901;42.140;24.760;2022-12-20T00:51:16;101766.91;;;1.28;95.42
5753;BME280;2901;42.140;24.760;2022-12-20T00:53:41;101756.97;;;1.20;96.77
5753;BME280;2901;42.140;24.760;2022-12-20T00:56:08;101760.88;;;1.15;97.26
5753;BME280;2901;42.140;24.760;2022-12-20T00:58:35;101752.31;;;1.01;98.28
5753;BME280;2901;42.140;24.760;2022-12-20T01:01:00;101748.75;;;0.99;99.29
5753;BME280;2901;42.140;24.760;2022-12-20T01:03:26;101742.63;;;0.84;99.45
5753;BME280;2901;42.140;24.760;2022-12-20T01:05:54;101750.84;;;0.80;100.00
5753;BME280;2901;42.140;24.760;2022-12-20T01:08:21;101743.44;;;0.71;100.00
5753;BME280;2901;42.140;24.760;2022-12-20T01:10:56;101750.13;;;0.58;100.00
5753;BME280;2901;42.140;24.760;2022-12-20T01:13:22;101754.28;;;0.44;100.00
5753;BME280;2901;42.140;24.760;2022-12-20T01:15:47;101741.44;;;0.42;100.00
5753;BME280;2901;42.140;24.760;2022-12-20T01:18:13;101731.81;;;0.38;100.00
5753;BME280;2901;42.140;24.760;2022-12-20T01:20:38;101738.13;;;0.32;100.00
5753;BME280;2901;42.140;24.760;2022-12-20T01:23:03;101733.72;;;0.18;100.00
5753;BME280;2901;42.140;24.760;2022-12-20T01:25:29;101735.72;;;0.22;100.00
5753;BME280;2901;42.140;24.760;2022-12-20T01:27:54;101725.44;;;0.09;100.00
5753;BME280;2901;42.140;24.760;2022-12-20T01:30:19;101724.13;;;0.02;100.00
5753;BME280;2901;42.140;24.760;2022-12-20T01:32:45;101716.38;;;0.00;100.00
5753;BME280;2901;42.140;24.760;2022-12-20T01:35:10;101714.28;;;-0.05;100.00
5753;BME280;2901;42.140;24.760;2022-12-20T01:37:35;101701.22;;;0.02;100.00
5753;BME280;2901;42.140;24.760;2022-12-20T01:40:01;101700.31;;;0.02;100.00
5753;BME280;2901;42.140;24.760;2022-12-20T01:42:26;101689.03;;;0.10;100.00
5753;BME280;2901;42.140;24.760;2022-12-20T01:44:55;101699.63;;;0.16;100.00
5753;BME280;2901;42.140;24.760;2022-12-20T01:47:21;101698.75;;;0.15;100.00
5753;BME280;2901;42.140;24.760;2022-12-20T01:49:49;101696.66;;;0.10;100.00
5753;BME280;2901;42.140;24.760;2022-12-20T01:52:23;101702.06;;;0.14;100.00
5753;BME280;2901;42.140;24.760;2022-12-20T01:55:24;101694.97;;;0.10;100.00
5753;BME280;2901;42.140;24.760;2022-12-20T01:57:51;101691.56;;;0.10;100.00
5753;BME280;2901;42.140;24.760;2022-12-20T02:00:18;101690.34;;;0.16;100.00
5753;BME280;2901;42.140;24.760;2022-12-20T02:02:46;101695.22;;;0.13;100.00
5753;BME280;2901;42.140;24.760;2022-12-20T02:05:13;101691.66;;;0.23;100.00
5753;BME280;2901;42.140;24.760;2022-12-20T02:07:40;101678.59;;;0.18;100.00
5753;BME280;2901;42.140;24.760;2022-12-20T02:10:09;101679.69;;;0.22;100.00
5753;BME280;2901;42.140;24.760;2022-12-20T02:12:41;101677.00;;;0.20;100.00
5753;BME280;2901;42.140;24.760;2022-12-20T02:18:15;101672.38;;;0.15;100.00
5753;BME280;2901;42.140;24.760;2022-12-20T02:21:07;101670.16;;;0.19;100.00
5753;BME280;2901;42.140;24.760;2022-12-20T02:26:40;101675.56;;;0.24;100.00
5753;BME280;2901;42.140;24.760;2022-12-20T02:32:13;101675.22;;;0.31;99.92
5753;BME280;2901;42.140;24.760;2022-12-20T02:34:40;101671.69;;;0.29;99.56
5753;BME280;2901;42.140;24.760;2022-12-20T02:37:06;101681.06;;;0.30;99.75
5753;BME280;2901;42.140;24.760;2022-12-20T02:39:33;101678.47;;;0.17;100.00
5753;BME280;2901;42.140;24.760;2022-12-20T02:42:10;101673.13;;;0.25;100.00
5753;BME280;2901;42.140;24.760;2022-12-20T02:44:40;101672.88;;;0.34;99.44
5753;BME280;2901;42.140;24.760;2022-12-20T02:47:31;101668.84;;;0.13;99.71
5753;BME280;2901;42.140;24.760;2022-12-20T02:49:57;101676.50;;;0.01;100.00
5753;BME280;2901;42.140;24.760;2022-12-20T02:52:26;101675.84;;;0.04;100.00
5753;BME280;2901;42.140;24.760;2022-12-20T02:54:56;101667.13;;;0.00;100.00
5753;BME280;2901;42.140;24.760;2022-12-20T03:02:33;101671.50;;;0.14;100.00
5753;BME280;2901;42.140;24.760;2022-12-20T03:05:19;101669.16;;;0.17;100.00
5753;BME280;2901;42.140;24.760;2022-12-20T03:07:46;101661.72;;;0.20;100.00
5753;BME280;2901;42.140;24.760;2022-12-20T03:10:11;101660.28;;;0.24;99.92
5753;BME280;2901;42.140;24.760;2022-12-20T03:12:37;101647.75;;;0.27;99.38
5753;BME280;2901;42.140;24.760;2022-12-20T03:15:02;101654.19;;;0.22;99.07
5753;BME280;2901;42.140;24.760;2022-12-20T03:17:28;101646.00;;;0.26;98.85
5753;BME280;2901;42.140;24.760;2022-12-20T03:19:53;101657.38;;;0.31;98.58
5753;BME280;2901;42.140;24.760;2022-12-20T03:22:18;101646.50;;;0.33;97.83
5753;BME280;2901;42.140;24.760;2022-12-20T03:24:44;101642.84;;;0.41;98.22
5753;BME280;2901;42.140;24.760;2022-12-20T03:27:09;101646.88;;;0.51;97.80
5753;BME280;2901;42.140;24.760;2022-12-20T03:29:35;101654.31;;;0.48;97.63
5753;BME280;2901;42.140;24.760;2022-12-20T03:32:00;101655.41;;;0.51;97.89
5753;BME280;2901;42.140;24.760;2022-12-20T03:34:26;101658.91;;;0.65;97.58
5753;BME280;2901;42.140;24.760;2022-12-20T03:36:51;101660.25;;;0.60;97.80
5753;BME280;2901;42.140;24.760;2022-12-20T03:39:16;101656.66;;;0.45;98.14
5753;BME280;2901;42.140;24.760;2022-12-20T03:41:42;101659.41;;;0.48;99.04
5753;BME280;2901;42.140;24.760;2022-12-20T03:44:07;101665.34;;;0.60;98.94
5753;BME280;2901;42.140;24.760;2022-12-20T03:46:33;101660.44;;;0.63;98.56
5753;BME280;2901;42.140;24.760;2022-12-20T03:48:58;101664.78;;;0.64;98.46
5753;BME280;2901;42.140;24.760;2022-12-20T03:51:24;101668.78;;;0.61;98.25
5753;BME280;2901;42.140;24.760;2022-12-20T03:53:49;101671.38;;;0.74;98.14
5753;BME280;2901;42.140;24.760;2022-12-20T03:56:14;101671.78;;;0.80;98.13
5753;BME280;2901;42.140;24.760;2022-12-20T03:58:40;101674.25;;;0.78;97.90
5753;BME280;2901;42.140;24.760;2022-12-20T04:01:26;101675.72;;;0.75;97.86
5753;BME280;2901;42.140;24.760;2022-12-20T04:03:52;101664.00;;;0.65;97.37
5753;BME280;2901;42.140;24.760;2022-12-20T04:06:19;101670.75;;;0.65;96.71
5753;BME280;2901;42.140;24.760;2022-12-20T04:08:45;101677.63;;;0.66;96.72
5753;BME280;2901;42.140;24.760;2022-12-20T04:11:11;101660.03;;;0.57;97.04
5753;BME280;2901;42.140;24.760;2022-12-20T04:13:47;101662.66;;;0.45;97.38
5753;BME280;2901;42.140;24.760;2022-12-20T04:16:15;101673.00;;;0.35;97.62
5753;BME280;2901;42.140;24.760;2022-12-20T04:18:41;101667.03;;;0.23;98.10
5753;BME280;2901;42.140;24.760;2022-12-20T04:21:07;101673.47;;;0.18;98.19
5753;BME280;2901;42.140;24.760;2022-12-20T04:23:34;101669.63;;;0.12;98.62
5753;BME280;2901;42.140;24.760;2022-12-20T04:26:00;101668.19;;;0.15;98.84
5753;BME280;2901;42.140;24.760;2022-12-20T04:28:27;101664.88;;;0.16;99.04
5753;BME280;2901;42.140;24.760;2022-12-20T04:30:52;101668.44;;;0.07;99.29
5753;BME280;2901;42.140;24.760;2022-12-20T04:33:18;101664.75;;;0.15;99.20
5753;BME280;2901;42.140;24.760;2022-12-20T04:35:43;101668.66;;;0.10;98.66
5753;BME280;2901;42.140;24.760;2022-12-20T04:38:08;101674.50;;;0.09;98.52
5753;BME280;2901;42.140;24.760;2022-12-20T04:40:34;101668.06;;;0.14;98.17
5753;BME280;2901;42.140;24.760;2022-12-20T04:42:59;101671.16;;;0.21;97.56
5753;BME280;2901;42.140;24.760;2022-12-20T04:45:25;101669.28;;;0.19;97.17
5753;BME280;2901;42.140;24.760;2022-12-20T04:47:50;101663.50;;;0.21;96.71
5753;BME280;2901;42.140;24.760;2022-12-20T04:50:16;101668.09;;;0.38;96.34
5753;BME280;2901;42.140;24.760;2022-12-20T04:52:43;101669.19;;;0.42;95.50
5753;BME280;2901;42.140;24.760;2022-12-20T04:55:26;101664.09;;;0.42;95.93
5753;BME280;2901;42.140;24.760;2022-12-20T04:57:52;101665.66;;;0.40;95.76
5753;BME280;2901;42.140;24.760;2022-12-20T05:00:17;101664.81;;;0.28;96.46
5753;BME280;2901;42.140;24.760;2022-12-20T05:02:43;101651.97;;;0.26;96.32
5753;BME280;2901;42.140;24.760;2022-12-20T05:05:08;101655.72;;;0.31;96.84
5753;BME280;2901;42.140;24.760;2022-12-20T05:07:34;101655.25;;;0.37;96.62
5753;BME280;2901;42.140;24.760;2022-12-20T05:09:59;101665.00;;;0.42;95.62
5753;BME280;2901;42.140;24.760;2022-12-20T05:12:25;101652.03;;;0.39;95.00
5753;BME280;2901;42.140;24.760;2022-12-20T05:14:50;101637.88;;;0.31;95.00
5753;BME280;2901;42.140;24.760;2022-12-20T05:17:15;101644.97;;;0.35;95.12
5753;BME280;2901;42.140;24.760;2022-12-20T05:19:41;101650.28;;;0.38;95.35
5753;BME280;2901;42.140;24.760;2022-12-20T05:22:06;101647.72;;;0.38;94.83
5753;BME280;2901;42.140;24.760;2022-12-20T05:24:50;101646.63;;;0.35;95.12
5753;BME280;2901;42.140;24.760;2022-12-20T05:27:34;101648.19;;;0.33;95.80
5753;BME280;2901;42.140;24.760;2022-12-20T05:29:59;101646.41;;;0.32;96.22
5753;BME280;2901;42.140;24.760;2022-12-20T05:32:25;101648.41;;;0.36;96.25
5753;BME280;2901;42.140;24.760;2022-12-20T05:34:50;101632.03;;;0.32;96.52
5753;BME280;2901;42.140;24.760;2022-12-20T05:37:15;101643.97;;;0.33;96.03
5753;BME280;2901;42.140;24.760;2022-12-20T05:39:41;101641.53;;;0.35;96.30
5753;BME280;2901;42.140;24.760;2022-12-20T05:42:06;101642.41;;;0.35;96.87
5753;BME280;2901;42.140;24.760;2022-12-20T05:44:31;101649.72;;;0.31;98.03
5753;BME280;2901;42.140;24.760;2022-12-20T05:46:57;101641.72;;;0.38;97.72
5753;BME280;2901;42.140;24.760;2022-12-20T05:49:22;101634.22;;;0.39;97.81
5753;BME280;2901;42.140;24.760;2022-12-20T05:51:48;101643.94;;;0.45;97.66
5753;BME280;2901;42.140;24.760;2022-12-20T05:54:13;101646.56;;;0.46;97.22
5753;BME280;2901;42.140;24.760;2022-12-20T05:56:38;101641.25;;;0.43;96.68
5753;BME280;2901;42.140;24.760;2022-12-20T05:59:04;101645.69;;;0.46;96.97
5753;BME280;2901;42.140;24.760;2022-12-20T06:01:29;101642.25;;;0.45;96.92
5753;BME280;2901;42.140;24.760;2022-12-20T06:03:54;101649.22;;;0.48;97.12
5753;BME280;2901;42.140;24.760;2022-12-20T06:06:20;101637.06;;;0.44;96.94
5753;BME280;2901;42.140;24.760;2022-12-20T06:08:46;101636.16;;;0.43;97.09
5753;BME280;2901;42.140;24.760;2022-12-20T06:11:12;101646.47;;;0.45;97.72
5753;BME280;2901;42.140;24.760;2022-12-20T06:13:37;101643.25;;;0.47;98.13
5753;BME280;2901;42.140;24.760;2022-12-20T06:16:03;101646.88;;;0.51;97.66
5753;BME280;2901;42.140;24.760;2022-12-20T06:18:28;101645.47;;;0.43;97.94
5753;BME280;2901;42.140;24.760;2022-12-20T06:20:54;101651.66;;;0.46;98.22
5753;BME280;2901;42.140;24.760;2022-12-20T06:23:19;101651.84;;;0.49;98.48
5753;BME280;2901;42.140;24.760;2022-12-20T06:25:45;101652.19;;;0.54;98.14
5753;BME280;2901;42.140;24.760;2022-12-20T06:28:11;101654.56;;;0.64;98.38
5753;BME280;2901;42.140;24.760;2022-12-20T06:30:36;101648.03;;;0.68;98.12
5753;BME280;2901;42.140;24.760;2022-12-20T06:33:02;101650.09;;;0.73;97.96
5753;BME280;2901;42.140;24.760;2022-12-20T06:35:28;101646.78;;;0.74;97.91
5753;BME280;2901;42.140;24.760;2022-12-20T06:37:53;101656.44;;;0.67;98.75
5753;BME280;2901;42.140;24.760;2022-12-20T06:40:19;101643.00;;;0.69;98.85
5753;BME280;2901;42.140;24.760;2022-12-20T06:42:44;101644.50;;;0.66;99.30
5753;BME280;2901;42.140;24.760;2022-12-20T06:45:10;101646.94;;;0.64;100.00
5753;BME280;2901;42.140;24.760;2022-12-20T06:47:35;101636.28;;;0.45;100.00
5753;BME280;2901;42.140;24.760;2022-12-20T06:50:02;101642.34;;;0.47;100.00
5753;BME280;2901;42.140;24.760;2022-12-20T06:52:28;101641.25;;;0.43;100.00
5753;BME280;2901;42.140;24.760;2022-12-20T06:54:53;101641.72;;;0.38;100.00
5753;BME280;2901;42.140;24.760;2022-12-20T06:57:19;101632.63;;;0.41;100.00
5753;BME280;2901;42.140;24.760;2022-12-20T06:59:44;101633.69;;;0.32;100.00
5753;BME280;2901;42.140;24.760;2022-12-20T07:02:13;101636.00;;;0.29;99.86
5753;BME280;2901;42.140;24.760;2022-12-20T07:04:38;101643.47;;;0.26;100.00
5753;BME280;2901;42.140;24.760;2022-12-20T07:07:04;101646.50;;;0.33;100.00
5753;BME280;2901;42.140;24.760;2022-12-20T07:09:29;101635.28;;;0.43;99.87
5753;BME280;2901;42.140;24.760;2022-12-20T07:11:56;101638.75;;;0.57;99.42
5753;BME280;2901;42.140;24.760;2022-12-20T07:14:21;101643.81;;;0.68;98.28
5753;BME280;2901;42.140;24.760;2022-12-20T07:16:47;101636.00;;;0.78;97.05
5753;BME280;2901;42.140;24.760;2022-12-20T07:19:13;101636.28;;;0.83;96.17
5753;BME280;2901;42.140;24.760;2022-12-20T07:21:39;101637.31;;;0.98;95.27
5753;BME280;2901;42.140;24.760;2022-12-20T07:24:05;101638.44;;;1.15;94.57
5753;BME280;2901;42.140;24.760;2022-12-20T07:26:31;101622.13;;;1.26;94.13
5753;BME280;2901;42.140;24.760;2022-12-20T07:28:56;101629.19;;;1.56;93.75
5753;BME280;2901;42.140;24.760;2022-12-20T07:31:22;101631.53;;;1.66;92.64
5753;BME280;2901;42.140;24.760;2022-12-20T07:33:47;101628.41;;;1.70;91.18
5753;BME280;2901;42.140;24.760;2022-12-20T07:36:13;101617.16;;;1.81;90.93
5753;BME280;2901;42.140;24.760;2022-12-20T07:38:40;101614.91;;;1.86;90.03
5753;BME280;2901;42.140;24.760;2022-12-20T07:41:08;101622.72;;;1.74;89.70
5753;BME280;2901;42.140;24.760;2022-12-20T07:43:34;101611.63;;;1.61;89.48
5753;BME280;2901;42.140;24.760;2022-12-20T07:45:59;101603.47;;;1.53;89.04
5753;BME280;2901;42.140;24.760;2022-12-20T07:48:24;101604.25;;;1.52;89.11
5753;BME280;2901;42.140;24.760;2022-12-20T07:50:52;101604.94;;;1.49;89.29
5753;BME280;2901;42.140;24.760;2022-12-20T07:53:20;101610.75;;;1.47;88.66
5753;BME280;2901;42.140;24.760;2022-12-20T07:55:47;101610.25;;;1.39;90.40
5753;BME280;2901;42.140;24.760;2022-12-20T07:58:13;101602.59;;;1.39;90.85
5753;BME280;2901;42.140;24.760;2022-12-20T08:00:41;101607.41;;;1.61;90.99
5753;BME280;2901;42.140;24.760;2022-12-20T08:03:15;101598.69;;;1.85;91.08
5753;BME280;2901;42.140;24.760;2022-12-20T08:05:44;101596.16;;;2.13;89.63
5753;BME280;2901;42.140;24.760;2022-12-20T08:08:11;101596.13;;;2.41;89.26
5753;BME280;2901;42.140;24.760;2022-12-20T08:10:37;101594.06;;;2.63;89.18
5753;BME280;2901;42.140;24.760;2022-12-20T08:13:04;101590.63;;;2.77;87.79
5753;BME280;2901;42.140;24.760;2022-12-20T08:15:30;101588.41;;;2.83;86.72
5753;BME280;2901;42.140;24.760;2022-12-20T08:17:57;101591.09;;;2.99;85.86
5753;BME280;2901;42.140;24.760;2022-12-20T08:20:22;101575.47;;;3.09;85.85
5753;BME280;2901;42.140;24.760;2022-12-20T08:22:48;101578.25;;;3.29;86.25
5753;BME280;2901;42.140;24.760;2022-12-20T08:25:13;101566.47;;;3.47;84.84
5753;BME280;2901;42.140;24.760;2022-12-20T08:27:39;101574.81;;;3.59;83.34
5753;BME280;2901;42.140;24.760;2022-12-20T08:30:05;101574.34;;;3.66;82.34
5753;BME280;2901;42.140;24.760;2022-12-20T08:32:31;101578.34;;;3.61;82.14
5753;BME280;2901;42.140;24.760;2022-12-20T08:34:56;101571.88;;;3.67;82.56
5753;BME280;2901;42.140;24.760;2022-12-20T08:37:22;101574.59;;;3.71;81.84
5753;BME280;2901;42.140;24.760;2022-12-20T08:39:47;101574.44;;;3.67;82.00
5753;BME280;2901;42.140;24.760;2022-12-20T08:42:13;101562.06;;;3.75;82.88
5753;BME280;2901;42.140;24.760;2022-12-20T08:44:38;101566.03;;;3.86;81.69
5753;BME280;2901;42.140;24.760;2022-12-20T08:47:04;101563.34;;;3.99;80.02
5753;BME280;2901;42.140;24.760;2022-12-20T08:49:29;101557.00;;;3.93;80.80
5753;BME280;2901;42.140;24.760;2022-12-20T08:51:55;101558.22;;;3.99;80.41
5753;BME280;2901;42.140;24.760;2022-12-20T08:54:20;101555.00;;;4.03;78.82
5753;BME280;2901;42.140;24.760;2022-12-20T08:56:45;101546.75;;;4.09;79.16
5753;BME280;2901;42.140;24.760;2022-12-20T08:59:11;101541.88;;;4.13;79.06
5753;BME280;2901;42.140;24.760;2022-12-20T09:01:36;101534.66;;;3.90;79.52
5753;BME280;2901;42.140;24.760;2022-12-20T09:04:02;101540.84;;;3.78;81.02
5753;BME280;2901;42.140;24.760;2022-12-20T09:06:28;101530.66;;;3.79;82.05
5753;BME280;2901;42.140;24.760;2022-12-20T09:08:54;101525.38;;;3.92;81.92
5753;BME280;2901;42.140;24.760;2022-12-20T09:11:22;101523.47;;;3.88;80.84
5753;BME280;2901;42.140;24.760;2022-12-20T09:13:51;101515.38;;;3.81;81.31
5753;BME280;2901;42.140;24.760;2022-12-20T09:16:19;101514.41;;;3.95;81.03
5753;BME280;2901;42.140;24.760;2022-12-20T09:18:48;101522.41;;;4.01;80.51
5753;BME280;2901;42.140;24.760;2022-12-20T09:21:14;101515.50;;;4.16;80.21
5753;BME280;2901;42.140;24.760;2022-12-20T09:23:40;101504.78;;;4.07;79.66
5753;BME280;2901;42.140;24.760;2022-12-20T09:26:09;101504.69;;;4.22;80.97
5753;BME280;2901;42.140;24.760;2022-12-20T09:28:35;101496.81;;;4.35;80.09
5753;BME280;2901;42.140;24.760;2022-12-20T09:31:02;101492.16;;;4.44;80.31
5753;BME280;2901;42.140;24.760;2022-12-20T09:33:30;101486.97;;;4.60;79.60
5753;BME280;2901;42.140;24.760;2022-12-20T09:35:56;101491.53;;;4.65;77.69
5753;BME280;2901;42.140;24.760;2022-12-20T09:38:22;101479.94;;;4.56;78.55
5753;BME280;2901;42.140;24.760;2022-12-20T09:40:50;101473.72;;;4.68;78.21
5753;BME280;2901;42.140;24.760;2022-12-20T09:43:17;101462.56;;;4.68;77.00
5753;BME280;2901;42.140;24.760;2022-12-20T09:45:45;101467.84;;;4.71;77.44
5753;BME280;2901;42.140;24.760;2022-12-20T09:48:34;101457.28;;;4.65;77.08
5753;BME280;2901;42.140;24.760;2022-12-20T09:56:42;101446.28;;;4.50;76.59
5753;BME280;2901;42.140;24.760;2022-12-20T09:59:14;101440.50;;;4.54;76.46
5753;BME280;2901;42.140;24.760;2022-12-20T10:01:47;101426.72;;;4.69;76.73
5753;BME280;2901;42.140;24.760;2022-12-20T10:04:23;101429.13;;;4.84;75.91
5753;BME280;2901;42.140;24.760;2022-12-20T10:12:08;101425.91;;;5.25;71.21
5753;BME280;2901;42.140;24.760;2022-12-20T10:17:13;101422.06;;;5.35;70.78
5753;BME280;2901;42.140;24.760;2022-12-20T10:20:08;101410.59;;;5.27;73.04
5753;BME280;2901;42.140;24.760;2022-12-20T10:25:35;101405.09;;;5.38;72.68
5753;BME280;2901;42.140;24.760;2022-12-20T10:28:03;101377.91;;;5.24;74.43
5753;BME280;2901;42.140;24.760;2022-12-20T10:30:31;101388.16;;;5.42;72.21
5753;BME280;2901;42.140;24.760;2022-12-20T10:32:57;101391.19;;;5.33;73.45
5753;BME280;2901;42.140;24.760;2022-12-20T10:35:29;101372.19;;;5.30;73.09
5753;BME280;2901;42.140;24.760;2022-12-20T10:38:09;101376.94;;;5.40;73.72
5753;BME280;2901;42.140;24.760;2022-12-20T10:40:41;101371.19;;;5.45;72.55
5753;BME280;2901;42.140;24.760;2022-12-20T10:43:17;101364.34;;;5.65;72.19
5753;BME280;2901;42.140;24.760;2022-12-20T10:45:45;101361.44;;;5.57;71.74
5753;BME280;2901;42.140;24.760;2022-12-20T10:54:00;101337.72;;;5.84;71.17
5753;BME280;2901;42.140;24.760;2022-12-20T10:56:28;101329.00;;;5.99;71.48
5753;BME280;2901;42.140;24.760;2022-12-20T11:01:30;101323.78;;;5.98;70.00
5753;BME280;2901;42.140;24.760;2022-12-20T11:04:20;101321.56;;;5.86;70.23
5753;BME280;2901;42.140;24.760;2022-12-20T11:06:49;101325.13;;;5.90;69.89
5753;BME280;2901;42.140;24.760;2022-12-20T11:09:33;101322.13;;;5.60;70.08
5753;BME280;2901;42.140;24.760;2022-12-20T11:12:15;101299.72;;;5.76;71.18
5753;BME280;2901;42.140;24.760;2022-12-20T11:14:44;101302.97;;;6.12;70.82
5753;BME280;2901;42.140;24.760;2022-12-20T11:20:24;101291.72;;;6.53;69.15
5753;BME280;2901;42.140;24.760;2022-12-20T11:31:14;101258.53;;;7.56;63.54
5753;BME280;2901;42.140;24.760;2022-12-20T11:33:51;101258.13;;;7.44;62.99
5753;BME280;2901;42.140;24.760;2022-12-20T11:36:24;101253.50;;;7.35;62.90
5753;BME280;2901;42.140;24.760;2022-12-20T11:39:31;101257.34;;;6.97;64.53
5753;BME280;2901;42.140;24.760;2022-12-20T11:45:24;101244.97;;;6.89;63.52
5753;BME280;2901;42.140;24.760;2022-12-20T11:50:44;101235.38;;;7.08;62.94
5753;BME280;2901;42.140;24.760;2022-12-20T11:58:58;101206.84;;;7.02;63.97
5753;BME280;2901;42.140;24.760;2022-12-20T12:01:33;101204.34;;;7.29;63.93
5753;BME280;2901;42.140;24.760;2022-12-20T12:04:21;101197.28;;;7.49;62.49
5753;BME280;2901;42.140;24.760;2022-12-20T12:07:03;101201.19;;;7.63;61.38
5753;BME280;2901;42.140;24.760;2022-12-20T12:10:05;101197.84;;;7.65;60.07
5753;BME280;2901;42.140;24.760;2022-12-20T12:12:42;101196.94;;;7.65;61.02
5753;BME280;2901;42.140;24.760;2022-12-20T12:17:50;101190.53;;;7.79;60.14
5753;BME280;2901;42.140;24.760;2022-12-20T12:25:43;101179.09;;;7.98;59.13
5753;BME280;2901;42.140;24.760;2022-12-20T12:28:12;101178.97;;;7.93;59.51
5753;BME280;2901;42.140;24.760;2022-12-20T12:30:44;101179.09;;;7.71;59.66
5753;BME280;2901;42.140;24.760;2022-12-20T12:33:18;101179.50;;;7.56;60.80
5753;BME280;2901;42.140;24.760;2022-12-20T12:38:49;101178.25;;;7.45;60.46
5753;BME280;2901;42.140;24.760;2022-12-20T12:46:43;101168.22;;;7.53;61.09
5753;BME280;2901;42.140;24.760;2022-12-20T12:49:18;101178.88;;;7.63;60.92
5753;BME280;2901;42.140;24.760;2022-12-20T12:51:55;101168.50;;;7.62;61.46
5753;BME280;2901;42.140;24.760;2022-12-20T12:54:27;101173.13;;;7.72;61.18
5753;BME280;2901;42.140;24.760;2022-12-20T12:57:00;101179.19;;;7.74;60.60
5753;BME280;2901;42.140;24.760;2022-12-20T13:10:54;101176.97;;;7.32;62.34
5753;BME280;2901;42.140;24.760;2022-12-20T13:17:58;101177.13;;;7.12;61.90
5753;BME280;2901;42.140;24.760;2022-12-20T13:20:29;101167.03;;;7.18;62.41
5753;BME280;2901;42.140;24.760;2022-12-20T13:25:47;101163.94;;;7.28;63.56
5753;BME280;2901;42.140;24.760;2022-12-20T13:43:59;101160.47;;;7.53;61.92
5753;BME280;2901;42.140;24.760;2022-12-20T13:46:35;101156.03;;;7.49;63.22
5753;BME280;2901;42.140;24.760;2022-12-20T13:49:09;101149.78;;;7.41;63.52
5753;BME280;2901;42.140;24.760;2022-12-20T13:51:36;101152.78;;;7.27;63.52
5753;BME280;2901;42.140;24.760;2022-12-20T13:54:03;101151.75;;;7.22;63.85
5753;BME280;2901;42.140;24.760;2022-12-20T13:56:55;101156.94;;;7.24;64.43
5753;BME280;2901;42.140;24.760;2022-12-20T13:59:26;101150.03;;;7.23;63.41
5753;BME280;2901;42.140;24.760;2022-12-20T14:01:57;101150.91;;;7.23;63.63
5753;BME280;2901;42.140;24.760;2022-12-20T14:04:25;101152.56;;;7.21;63.89
5753;BME280;2901;42.140;24.760;2022-12-20T14:07:00;101160.94;;;7.14;64.42
5753;BME280;2901;42.140;24.760;2022-12-20T14:09:30;101158.13;;;7.08;64.55
5753;BME280;2901;42.140;24.760;2022-12-20T14:12:05;101149.16;;;6.97;64.42
5753;BME280;2901;42.140;24.760;2022-12-20T14:14:42;101155.03;;;6.93;64.75
5753;BME280;2901;42.140;24.760;2022-12-20T14:19:40;101145.19;;;6.82;65.32
5753;BME280;2901;42.140;24.760;2022-12-20T14:22:08;101139.66;;;6.71;66.06
5753;BME280;2901;42.140;24.760;2022-12-20T14:24:35;101151.44;;;6.64;66.21
5753;BME280;2901;42.140;24.760;2022-12-20T14:27:02;101143.53;;;6.60;66.08
5753;BME280;2901;42.140;24.760;2022-12-20T14:29:29;101137.19;;;6.50;66.71
5753;BME280;2901;42.140;24.760;2022-12-20T14:31:55;101134.44;;;6.46;66.66
5753;BME280;2901;42.140;24.760;2022-12-20T14:34:27;101136.75;;;6.38;66.91
5753;BME280;2901;42.140;24.760;2022-12-20T14:37:25;101133.91;;;6.31;68.46
5753;BME280;2901;42.140;24.760;2022-12-20T14:39:55;101133.69;;;6.24;67.88
5753;BME280;2901;42.140;24.760;2022-12-20T14:42:21;101140.22;;;6.16;68.34
5753;BME280;2901;42.140;24.760;2022-12-20T14:44:46;101134.69;;;6.06;70.03
5753;BME280;2901;42.140;24.760;2022-12-20T14:47:25;101128.66;;;6.05;69.33
5753;BME280;2901;42.140;24.760;2022-12-20T14:49:58;101131.94;;;6.01;69.53
5753;BME280;2901;42.140;24.760;2022-12-20T14:52:35;101129.94;;;5.94;69.41
5753;BME280;2901;42.140;24.760;2022-12-20T14:55:10;101134.91;;;5.90;69.40
5753;BME280;2901;42.140;24.760;2022-12-20T15:10:41;101108.56;;;5.52;71.35
5753;BME280;2901;42.140;24.760;2022-12-20T15:13:14;101111.84;;;5.48;71.78
5753;BME280;2901;42.140;24.760;2022-12-20T15:15:40;101111.72;;;5.45;72.68
5753;BME280;2901;42.140;24.760;2022-12-20T15:18:18;101085.13;;;5.22;72.82
5753;BME280;2901;42.140;24.760;2022-12-20T15:20:47;101106.94;;;5.34;73.28
5753;BME280;2901;42.140;24.760;2022-12-20T15:23:19;101107.66;;;5.30;74.32
5753;BME280;2901;42.140;24.760;2022-12-20T15:25:45;101104.00;;;5.24;73.76